Latest Weather Observations for Hughenden

IDQ60801

Issued at 6:32 pm EST Tuesday 7 July 2015 (issued every 30 minutes, with the page automatically refreshed every 10 minutes)

About weather observations | Map of weather stations | Latest weather observations for QLD | Other Formats
Station Details ID: 030022 Name: HUGHENDEN AIRPORT Lat: -20.82 Lon: 144.23 Height: 316.4 m
Data from the previous 72 hours. | See also: Recent months at Hughenden
Date/Time
EST
Temp
°C
App
Temp
°C
Dew
Point
Rel
Hum
%
Delta-T
°C
Wind Press
QNH
hPa
Press
MSL
hPa
Rain
since 9 am
mm
Dir
 
Spd
km/h
Gust
km/h
Spd
kts
Gust
kts
07/06:30pm 21.0 17.0 -2.1 21 10.0 SSE 9 11 5 6 1016.0 1015.3 0.0
07/06:00pm 23.9 20.4 -1.1 19 11.3 SSE 7 9 4 5 1015.8 1015.1 0.0
07/05:30pm 25.8 22.3 -1.1 17 12.4 S 7 9 4 5 1015.5 1014.8 0.0
07/05:00pm 27.3 25.1 -1.6 15 13.3 CALM 0 0 0 0 1015.4 1014.7 0.0
07/04:30pm 27.3 23.8 -1.6 15 13.4 SSW 7 11 4 6 1015.2 1014.5 0.0
07/04:00pm 27.3 24.0 -1.6 15 13.3 E 6 9 3 5 1015.1 1014.4 0.0
07/03:30pm 27.6 23.7 -1.3 15 13.5 N 9 13 5 7 1015.2 1014.5 0.0
07/03:00pm 27.2 23.3 -1.7 15 13.3 NW 9 17 5 9 1015.4 1014.7 0.0
07/02:30pm 27.0 22.8 -0.9 16 13.0 SSE 11 17 6 9 1015.6 1014.9 0.0
07/02:00pm 27.2 23.8 -0.8 16 13.1 NNW 7 13 4 7 1015.9 1015.2 0.0
07/01:30pm 27.2 22.6 -0.8 16 13.1 N 13 24 7 13 1016.1 1015.4 0.0
07/01:00pm 26.3 22.1 -0.7 17 12.6 WSW 11 19 6 10 1016.5 1015.8 0.0
07/12:30pm 26.2 22.5 0.0 18 12.4 NNW 9 11 5 6 1017.1 1016.3 0.0
07/12:00pm 25.7 22.9 3.0 23 11.2 ENE 7 15 4 8 1017.5 1016.7 0.0
07/11:30am 25.7 22.5 5.3 27 10.6 ENE 11 20 6 11 1017.9 1017.2 0.0
07/11:00am 24.5 20.4 6.3 31 9.5 ENE 17 28 9 15 1018.3 1017.6 0.0
07/10:30am 23.9 21.4 6.7 33 9.0 ENE 9 15 5 8 1018.6 1017.9 0.0
07/10:00am 22.2 18.8 6.0 35 8.3 NE 13 19 7 10 1018.8 1018.1 0.0
07/09:30am 21.0 17.6 5.8 37 7.7 ENE 13 15 7 8 1018.8 1018.1 0.0
07/09:00am 19.7 15.9 5.7 40 7.0 ENE 15 19 8 10 1018.8 1018.1 0.0
07/08:30am 17.2 16.1 4.9 44 6.0 CALM 0 0 0 0 1018.5 1017.8 0.0
07/08:00am 14.0 11.6 4.3 52 4.5 ENE 6 7 3 4 1018.2 1017.5 0.0
07/07:30am 10.2 7.2 2.3 58 3.4 E 7 9 4 5 1017.9 1017.2 0.0
07/07:00am 8.7 5.6 1.1 59 3.1 E 7 7 4 4 1017.6 1016.8 0.0
07/06:30am 9.3 7.6 1.7 59 3.2 CALM 0 7 0 4 1017.2 1016.4 0.0
07/06:00am 9.6 7.8 1.0 55 3.6 CALM 0 0 0 0 1016.8 1016.0 0.0
07/05:30am 10.7 7.9 2.3 56 3.7 E 6 7 3 4 1016.5 1015.8 0.0
07/05:00am 10.1 6.3 1.7 56 3.6 SSE 11 11 6 6 1016.2 1015.5 0.0
07/04:30am 10.7 7.9 3.0 59 3.4 S 7 11 4 6 1016.3 1015.6 0.0
07/04:00am 10.6 7.5 1.4 53 3.9 SSE 7 9 4 5 1016.2 1015.5 0.0
07/03:30am 11.8 8.8 2.3 52 4.2 ESE 7 9 4 5 1016.1 1015.4 0.0
07/03:00am 12.9 9.3 3.0 51 4.5 ESE 11 13 6 7 1016.2 1015.5 0.0
07/02:30am 12.6 9.0 2.7 51 4.4 SE 11 13 6 7 1016.3 1015.6 0.0
07/02:00am 13.3 10.0 2.5 48 4.8 SSE 9 11 5 6 1016.4 1015.7 0.0
07/01:30am 14.2 11.6 3.4 48 5.0 SSW 6 7 3 4 1016.6 1015.9 0.0
07/01:00am 13.8 10.4 1.8 44 5.3 SSW 9 11 5 6 1016.8 1016.0 0.0
07/12:30am 15.0 11.8 2.9 44 5.5 SW 9 11 5 6 1016.9 1016.1 0.0
07/12:00am 17.0 13.1 3.3 40 6.4 ENE 13 17 7 9 1016.9 1016.1 0.0
 
Date/Time
EST
Temp
°C
App
Temp
°C
Dew
Point
Rel
Hum
%
Delta-T
°C
Wind Press
QNH
hPa
Press
MSL
hPa
Rain
since 9 am
mm
Dir
 
Spd
km/h
Gust
km/h
Spd
kts
Gust
kts
06/11:30pm 17.3 14.8 4.6 43 6.1 SE 7 11 4 6 1016.8 1016.0 0.0
06/11:00pm 15.6 12.2 2.1 40 6.1 SE 9 11 5 6 1016.9 1016.1 0.0
06/10:30pm 17.4 13.6 1.8 35 7.1 ESE 11 15 6 8 1017.0 1016.2 0.0
06/10:00pm 18.4 14.4 2.7 35 7.3 SSE 13 15 7 8 1017.0 1016.2 0.0
06/09:30pm 19.0 14.6 2.8 34 7.6 SSE 15 17 8 9 1017.0 1016.2 0.0
06/09:00pm 17.5 13.7 1.9 35 7.1 S 11 13 6 7 1016.9 1016.1 0.0
06/08:30pm 18.0 13.7 1.1 32 7.6 SE 13 19 7 10 1016.9 1016.1 0.0
06/08:00pm 18.8 14.5 1.3 31 8.0 SSW 13 15 7 8 1016.6 1015.9 0.0
06/07:30pm 18.6 14.8 1.6 32 7.8 SSW 11 13 6 7 1016.2 1015.5 0.0
06/07:00pm 21.0 17.2 1.8 28 9.0 S 11 13 6 7 1015.9 1015.2 0.0
06/06:30pm 22.4 19.3 3.5 29 9.3 S 9 11 5 6 1015.6 1014.9 0.0
06/06:00pm 24.6 21.2 2.1 23 10.9 S 9 11 5 6 1015.4 1014.7 0.0
06/05:30pm 26.5 23.2 2.4 21 11.9 S 9 11 5 6 1015.2 1014.5 0.0
06/05:00pm 27.7 24.2 1.2 18 12.9 WSW 9 13 5 7 1015.1 1014.4 0.0
06/04:30pm 28.2 25.2 1.7 18 13.1 W 7 11 4 6 1014.9 1014.1 0.0
06/04:00pm 28.1 24.0 2.3 19 12.8 SW 13 19 7 10 1015.0 1014.3 0.0
06/03:30pm 28.4 25.0 1.8 18 13.2 SW 9 13 5 7 1015.2 1014.5 0.0
06/03:00pm 27.4 23.8 3.2 21 12.2 SSE 11 17 6 9 1015.4 1014.7 0.0
06/02:30pm 28.4 25.9 4.6 22 12.4 SW 7 13 4 7 1015.7 1015.0 0.0
06/02:00pm 27.6 25.1 4.6 23 11.9 S 7 13 4 7 1016.0 1015.3 0.0
06/01:30pm 27.2 24.2 4.3 23 11.7 N 9 17 5 9 1016.5 1015.8 0.0
06/01:00pm 26.5 23.6 4.9 25 11.1 WSW 9 17 5 9 1017.2 1016.4 0.0
06/12:30pm 26.1 23.8 5.7 27 10.7 WNW 7 17 4 9 1017.7 1016.9 0.0
06/12:00pm 26.1 23.9 6.2 28 10.5 E 7 13 4 7 1018.2 1017.5 0.0
06/11:30am 25.4 22.3 5.6 28 10.3 ENE 11 15 6 8 1018.5 1017.8 0.0
06/11:00am 25.5 22.3 6.7 30 9.9 NE 13 22 7 12 1018.7 1018.0 0.0
06/10:30am 24.2 21.5 9.0 38 8.3 NE 13 17 7 9 1018.9 1018.2 0.0
06/10:00am 22.8 20.2 9.2 42 7.4 NE 13 17 7 9 1019.1 1018.4 0.0
06/09:30am 21.4 18.9 9.6 47 6.4 NE 13 17 7 9 1019.0 1018.3 0.0
06/09:00am 19.7 17.2 9.6 52 5.4 NE 13 17 7 9 1018.7 1018.0 0.0
06/08:30am 18.5 17.9 10.3 59 4.5 ESE 4 13 2 7 1018.5 1017.8 0.0
06/08:00am 14.1 12.4 7.4 64 3.3 SE 6 6 3 3 1018.1 1017.4 0.0
06/07:30am 11.0 8.6 5.1 67 2.7 ESE 7 7 4 4 1018.0 1017.3 0.0
06/07:00am 10.5 8.1 4.4 66 2.8 ESE 6 7 3 4 1017.9 1017.2 0.0
06/06:30am 11.3 9.2 5.8 69 2.6 ESE 6 7 3 4 1017.7 1016.9 0.0
06/06:00am 11.7 9.5 5.1 64 3.1 ESE 6 7 3 4 1017.5 1016.7 0.0
06/05:30am 11.6 9.2 5.3 65 3.0 SE 7 7 4 4 1017.5 1016.7 0.0
06/05:00am 12.5 9.5 4.0 56 3.9 ESE 9 11 5 6 1017.4 1016.6 0.0
06/04:30am 14.9 12.5 7.0 59 3.9 E 9 11 5 6 1017.3 1016.5 0.0
06/04:00am 16.1 13.4 7.3 56 4.4 ENE 11 15 6 8 1017.3 1016.5 0.0
06/03:30am 16.5 13.4 7.2 54 4.7 E 13 17 7 9 1017.4 1016.6 0.0
06/03:00am 16.7 13.4 6.2 50 5.2 ENE 13 17 7 9 1017.3 1016.5 0.0
06/02:30am 15.8 12.9 4.8 48 5.3 ENE 9 11 5 6 1017.4 1016.6 0.0
06/02:00am 16.2 13.0 4.9 47 5.4 E 11 15 6 8 1017.7 1016.9 0.0
06/01:30am 16.8 13.9 4.5 44 5.9 ENE 9 13 5 7 1018.1 1017.4 0.0
06/01:00am 16.7 12.7 5.0 46 5.7 E 15 15 8 8 1018.1 1017.4 0.0
06/12:30am 16.5 13.2 4.5 45 5.7 E 11 13 6 7 1018.2 1017.5 0.0
06/12:00am 17.6 13.9 4.5 42 6.3 E 13 17 7 9 1018.2 1017.5 0.0
 
Date/Time
EST
Temp
°C
App
Temp
°C
Dew
Point
Rel
Hum
%
Delta-T
°C
Wind Press
QNH
hPa
Press
MSL
hPa
Rain
since 9 am
mm
Dir
 
Spd
km/h
Gust
km/h
Spd
kts
Gust
kts
05/11:30pm 17.5 13.4 4.5 42 6.3 ESE 15 17 8 9 1018.3 1017.6 0.0
05/11:00pm 17.7 14.0 4.3 41 6.4 ESE 13 17 7 9 1018.5 1017.8 0.0
05/10:30pm 18.1 14.0 4.3 40 6.7 ESE 15 17 8 9 1018.6 1017.9 0.0
05/10:00pm 17.7 13.9 3.9 40 6.6 ESE 13 17 7 9 1018.5 1017.8 0.0
05/09:30pm 16.5 12.9 2.9 40 6.3 SE 11 13 6 7 1018.3 1017.6 0.0
05/09:00pm 17.0 13.3 2.6 38 6.6 SE 11 13 6 7 1018.3 1017.6 0.0
05/08:30pm 18.1 14.5 2.8 36 7.2 SE 11 11 6 6 1017.9 1017.2 0.0
05/08:00pm 19.2 15.6 3.0 34 7.7 SSE 11 13 6 7 1017.7 1016.9 0.0
05/07:30pm 19.9 16.0 3.2 33 8.0 SSE 13 15 7 8 1017.4 1016.6 0.0
05/07:00pm 19.2 15.4 1.7 31 8.1 S 11 13 6 7 1017.1 1016.3 0.0
05/06:30pm 20.6 17.3 2.4 30 8.6 SSE 9 11 5 6 1016.9 1016.1 0.0
05/06:00pm 23.6 20.7 2.4 25 10.2 SE 7 9 4 5 1016.6 1015.9 0.0
05/05:30pm 25.4 22.2 2.8 23 11.2 SE 9 11 5 6 1016.3 1015.6 0.0
05/05:00pm 26.3 24.0 2.9 22 11.6 SE 4 13 2 7 1016.2 1015.5 0.0
05/04:30pm 27.1 24.6 3.6 22 11.9 SE 6 11 3 6 1016.1 1015.4 0.0
05/04:00pm 26.9 23.8 3.4 22 11.8 SSE 9 13 5 7 1016.1 1015.4 0.0
05/03:30pm 27.2 23.4 3.7 22 11.9 SSW 13 15 7 8 1016.3 1015.6 0.0
05/03:00pm 27.5 25.0 3.9 22 12.0 ESE 6 13 3 7 1016.4 1015.7 0.0
05/02:30pm 26.6 23.5 3.8 23 11.5 E 9 17 5 9 1016.6 1015.9 0.0
05/02:00pm 26.6 23.5 3.8 23 11.5 E 9 15 5 8 1016.9 1016.1 0.0
05/01:30pm 26.0 23.1 4.5 25 11.0 E 9 13 5 7 1017.2 1016.4 0.0
05/01:00pm 26.3 23.4 4.7 25 11.1 SW 9 13 5 7 1017.6 1016.8 0.0
05/12:30pm 25.0 22.1 4.7 27 10.3 ENE 9 15 5 8 1018.1 1017.4 0.0
05/12:00pm 25.1 21.7 5.8 29 10.0 NE 13 20 7 11 1018.4 1017.7 0.0
05/11:30am 25.0 22.9 8.1 34 9.1 ENE 9 17 5 9 1018.9 1018.2 0.0
05/11:00am 23.8 21.0 8.6 38 8.2 NNE 13 19 7 10 1019.2 1018.5 0.0
05/10:30am 22.7 19.2 8.8 41 7.5 NE 17 26 9 14 1019.5 1018.8 0.0
05/10:00am 21.7 18.0 9.3 45 6.7 NE 19 28 10 15 1019.6 1018.9 0.0
05/09:30am 20.5 18.0 9.7 50 5.9 NE 13 20 7 11 1019.7 1019.0 0.0
05/09:00am 18.6 15.6 9.4 55 4.9 ENE 15 19 8 10 1019.5 1018.8 0.0
05/08:30am 17.4 15.3 9.6 60 4.2 ENE 11 15 6 8 1019.4 1018.7 0.0
05/08:00am 13.4 11.5 7.6 68 2.9 SSE 7 9 4 5 1019.3 1018.6 0.0
05/07:30am 10.1 7.7 5.1 71 2.3 SE 7 7 4 4 1018.9 1018.2 0.0
05/07:00am 10.0 7.5 4.8 70 2.4 ESE 7 7 4 4 1018.5 1017.8 0.0
05/06:30am 10.5 7.7 5.1 69 2.5 SE 9 11 5 6 1018.3 1017.6 0.0
05/06:00am 10.2 6.9 4.8 69 2.5 SE 11 13 6 7 1018.1 1017.4 0.0
05/05:30am 10.0 8.7 4.0 66 2.7 CALM 0 0 0 0 1017.9 1017.2 0.0
05/05:00am 10.9 8.3 3.0 58 3.5 E 6 7 3 4 1017.7 1016.9 0.0
05/04:30am 13.0 10.3 5.4 60 3.6 ENE 9 11 5 6 1017.6 1016.8 0.0
05/04:00am 14.4 11.0 5.7 56 4.2 E 13 15 7 8 1017.6 1016.8 0.0
05/03:30am 15.1 11.3 5.9 54 4.5 E 15 19 8 10 1017.6 1016.8 0.0
05/03:00am 13.8 10.6 4.9 55 4.2 ESE 11 15 6 8 1017.5 1016.7 0.0
05/02:30am 12.7 9.1 3.1 52 4.3 E 11 13 6 7 1017.5 1016.7 0.0
05/02:00am 12.6 9.3 2.7 51 4.4 E 9 13 5 7 1017.9 1017.2 0.0
05/01:30am 13.7 11.0 3.5 50 4.7 E 7 11 4 6 1018.3 1017.6 0.0
05/01:00am 13.8 11.2 3.3 49 4.8 ESE 6 9 3 5 1018.4 1017.7 0.0
05/12:30am 13.8 10.2 2.7 47 5.0 E 11 13 6 7 1018.5 1017.8 0.0
05/12:00am 14.5 10.6 3.3 47 5.1 ESE 13 15 7 8 1018.5 1017.8 0.0
 
Date/Time
EST
Temp
°C
App
Temp
°C
Dew
Point
Rel
Hum
%
Delta-T
°C
Wind Press
QNH
hPa
Press
MSL
hPa
Rain
since 9 am
mm
Dir
 
Spd
km/h
Gust
km/h
Spd
kts
Gust
kts
04/11:30pm 14.2 10.2 2.8 46 5.2 ESE 13 15 7 8 1018.6 1017.9 0.0
04/11:00pm 14.4 10.3 2.3 44 5.4 SE 13 15 7 8 1018.7 1018.0 0.0
04/10:30pm 14.9 10.8 2.1 42 5.8 ESE 13 15 7 8 1018.5 1017.8 0.0
04/10:00pm 15.6 11.1 2.1 40 6.1 ESE 15 15 8 8 1018.6 1017.9 0.0
04/09:30pm 16.3 12.9 1.6 37 6.6 ESE 9 11 5 6 1018.5 1017.8 0.0
04/09:00pm 17.4 12.7 1.0 33 7.3 ESE 15 17 8 9 1018.3 1017.6 0.0
04/08:30pm 18.1 13.4 1.2 32 7.7 ESE 15 19 8 10 1018.4 1017.7 0.0
04/08:00pm 18.2 13.4 -0.1 29 8.1 ESE 15 17 8 9 1018.0 1017.3 0.0
04/07:30pm 19.0 14.0 -0.9 26 8.7 SE 15 17 8 9 1017.6 1016.8 0.0
04/07:00pm 19.7 14.7 -1.4 24 9.2 SE 15 17 8 9 1017.2 1016.4 0.0

Other Formats:

Comma delimited format used in spreadsheet applications
http://www.bom.gov.au/fwo/IDQ60801/IDQ60801.94343.axf

JavaScript Object Notation format (JSON) in row-major order
http://www.bom.gov.au/fwo/IDQ60801/IDQ60801.94343.json